createdAt,value
2023-05-18T00:01:49.401Z,6.72
2023-05-18T00:04:01.586Z,6.72
2023-05-18T00:06:13.575Z,5.43
2023-05-18T00:08:25.640Z,8.65
2023-05-18T00:10:37.772Z,6.07
2023-05-18T00:12:49.824Z,6.40
2023-05-18T00:15:03.457Z,5.11
2023-05-18T00:17:15.511Z,7.04
2023-05-18T00:19:27.590Z,4.46
2023-05-18T00:21:39.656Z,6.07
2023-05-18T00:23:51.780Z,3.17
2023-05-18T00:26:03.892Z,8.33
2023-05-18T00:28:15.946Z,5.11
2023-05-18T00:30:28.919Z,6.07
2023-05-18T00:32:41.124Z,7.04
2023-05-18T00:34:53.182Z,5.75
2023-05-18T00:37:05.305Z,5.75
2023-05-18T00:39:17.361Z,3.17
2023-05-18T00:41:29.442Z,3.50
2023-05-18T00:43:43.009Z,5.75
2023-05-18T00:45:55.111Z,3.17
2023-05-18T00:48:07.454Z,4.79
2023-05-18T00:50:19.273Z,5.43
2023-05-18T00:52:31.344Z,5.11
2023-05-18T00:54:43.428Z,5.43
2023-05-18T00:56:55.500Z,5.75
2023-05-18T00:59:07.642Z,8.33
2023-05-18T01:01:19.722Z,1.88
2023-05-18T01:03:31.818Z,5.75
2023-05-18T01:05:43.852Z,3.17
2023-05-18T01:07:55.923Z,4.79
2023-05-18T01:10:09.546Z,3.17
2023-05-18T01:12:21.582Z,5.11
2023-05-18T01:14:33.661Z,4.79
2023-05-18T01:16:45.795Z,6.07
2023-05-18T01:18:57.854Z,5.11
2023-05-18T01:21:10.930Z,1.88
2023-05-18T01:23:24.496Z,4.46
2023-05-18T01:25:38.084Z,8.01
2023-05-18T01:27:50.160Z,5.43
2023-05-18T01:30:02.293Z,2.53
2023-05-18T01:32:14.353Z,5.11
2023-05-18T01:34:26.417Z,6.72
2023-05-18T01:36:38.530Z,4.46
2023-05-18T01:38:50.576Z,4.79
2023-05-18T01:41:03.659Z,2.85
2023-05-18T01:43:15.747Z,9.62
2023-05-18T01:45:27.956Z,4.79
2023-05-18T01:47:39.952Z,3.82
2023-05-18T01:49:51.993Z,7.04
2023-05-18T01:52:04.052Z,3.50
2023-05-18T01:54:17.650Z,7.36
2023-05-18T01:56:30.712Z,3.50
2023-05-18T01:58:42.813Z,-1.66
2023-05-18T02:00:54.878Z,1.56
2023-05-18T02:03:07.007Z,5.11
2023-05-18T02:05:20.083Z,5.43
2023-05-18T02:07:32.122Z,5.11
2023-05-18T02:09:44.274Z,7.69
2023-05-18T02:11:56.358Z,6.72
2023-05-18T02:14:08.444Z,1.88
2023-05-18T02:16:20.647Z,2.21
2023-05-18T02:18:32.599Z,4.46
2023-05-18T02:20:44.671Z,2.85
2023-05-18T02:22:56.768Z,6.72
2023-05-18T02:25:09.834Z,5.11
2023-05-18T02:27:23.464Z,5.43
2023-05-18T02:29:35.497Z,4.79
2023-05-18T02:31:47.648Z,1.56
2023-05-18T02:33:59.686Z,5.11
2023-05-18T02:36:11.768Z,4.46
2023-05-18T02:38:23.864Z,4.14
2023-05-18T02:40:35.919Z,5.43
2023-05-18T02:42:47.982Z,4.46
2023-05-18T02:45:00.387Z,5.11
2023-05-18T02:47:13.433Z,3.50
2023-05-18T02:49:25.562Z,5.43
2023-05-18T02:51:37.601Z,4.46
2023-05-18T02:53:50.023Z,7.69
2023-05-18T02:56:03.117Z,7.04
2023-05-18T02:58:15.215Z,8.01
2023-05-18T03:00:27.326Z,3.17
2023-05-18T03:02:40.940Z,5.43
2023-05-18T03:04:52.964Z,2.85
2023-05-18T03:07:05.046Z,7.04
2023-05-18T03:09:18.765Z,4.14
2023-05-18T03:11:30.716Z,3.82
2023-05-18T03:13:44.289Z,4.46
2023-05-18T03:15:56.364Z,6.72
2023-05-18T03:18:08.517Z,4.14
2023-05-18T03:20:20.534Z,7.69
2023-05-18T03:22:32.630Z,5.11
2023-05-18T03:24:44.714Z,4.14
2023-05-18T03:26:56.765Z,2.53
2023-05-18T03:29:08.851Z,4.14
2023-05-18T03:31:22.454Z,3.82
2023-05-18T03:33:35.520Z,4.14
2023-05-18T03:35:48.729Z,4.79
2023-05-18T03:37:59.677Z,4.79
2023-05-18T03:40:11.799Z,4.14
2023-05-18T03:42:23.824Z,1.56
2023-05-18T03:44:35.949Z,4.46
2023-05-18T03:46:48.096Z,4.46
2023-05-18T03:49:00.070Z,4.79
2023-05-18T03:51:12.154Z,4.14
2023-05-18T03:53:25.227Z,3.82
2023-05-18T03:55:37.344Z,2.21
2023-05-18T03:57:49.391Z,5.11
2023-05-18T04:00:01.488Z,3.50
2023-05-18T04:02:14.618Z,4.79
2023-05-18T04:04:28.156Z,4.14
2023-05-18T04:06:40.242Z,4.79
2023-05-18T04:08:52.304Z,2.21
2023-05-18T04:11:04.385Z,2.21
2023-05-18T04:13:16.473Z,8.33
2023-05-18T04:15:28.630Z,6.40
2023-05-18T04:17:40.688Z,3.17
2023-05-18T04:19:52.708Z,5.11
2023-05-18T04:22:04.789Z,5.75
2023-05-18T04:24:16.881Z,6.07
2023-05-18T04:26:30.464Z,4.79
2023-05-18T04:28:44.049Z,8.65
2023-05-18T04:30:56.122Z,8.97
2023-05-18T04:33:09.235Z,6.07
2023-05-18T04:35:21.303Z,4.79
2023-05-18T04:37:33.396Z,5.43
2023-05-18T04:39:45.482Z,5.11
2023-05-18T04:41:57.523Z,5.75
2023-05-18T04:44:09.656Z,5.75
2023-05-18T04:46:22.756Z,6.72
2023-05-18T04:48:34.824Z,5.43
2023-05-18T04:50:47.920Z,8.97
2023-05-18T04:53:01.455Z,5.43
2023-05-18T04:55:13.538Z,8.97
2023-05-18T04:57:27.107Z,9.30
2023-05-18T04:59:39.197Z,8.97
2023-05-18T05:01:51.355Z,5.75
2023-05-18T05:04:03.446Z,5.75
2023-05-18T05:06:15.481Z,6.07
2023-05-18T05:08:27.595Z,6.07
2023-05-18T05:10:39.645Z,3.82
2023-05-18T05:12:53.232Z,8.65
2023-05-18T05:15:06.324Z,8.97
2023-05-18T05:17:18.395Z,3.50
2023-05-18T05:19:32.058Z,9.30
2023-05-18T05:21:45.031Z,7.04
2023-05-18T05:23:57.154Z,7.36
2023-05-18T05:26:09.199Z,4.46
2023-05-18T05:28:21.307Z,10.26
2023-05-18T05:30:33.356Z,7.36
2023-05-18T05:32:45.459Z,7.04
2023-05-18T05:34:57.518Z,5.75
2023-05-18T05:37:09.589Z,7.04
2023-05-18T05:39:21.668Z,8.01
2023-05-18T05:41:33.741Z,8.01
2023-05-18T05:43:45.826Z,10.91
2023-05-18T05:45:57.943Z,9.62
2023-05-18T05:48:12.575Z,7.36
2023-05-18T05:50:22.143Z,9.94
2023-05-18T05:52:36.748Z,4.79
2023-05-18T05:54:48.868Z,5.75
2023-05-18T05:57:00.952Z,8.01
2023-05-18T05:59:13.031Z,8.65
2023-05-18T06:01:25.146Z,8.65
2023-05-18T06:03:37.292Z,9.30
2023-05-18T06:05:49.283Z,10.91
2023-05-18T06:08:01.393Z,11.23
2023-05-18T06:10:13.435Z,11.55
2023-05-18T06:12:25.520Z,9.30
2023-05-18T06:14:37.626Z,8.65
2023-05-18T06:16:49.738Z,9.62
2023-05-18T06:19:01.833Z,8.97
2023-05-18T06:21:14.852Z,10.26
2023-05-18T06:23:26.960Z,9.62
2023-05-18T06:25:39.016Z,7.36
2023-05-18T06:27:52.603Z,7.36
2023-05-18T06:30:04.695Z,9.94
2023-05-18T06:32:17.862Z,7.36
2023-05-18T06:34:31.331Z,11.55
2023-05-18T06:36:43.403Z,8.97
2023-05-18T06:38:57.023Z,12.20
2023-05-18T06:41:09.112Z,11.23
2023-05-18T06:43:22.640Z,9.94
2023-05-18T06:45:37.066Z,9.94
2023-05-18T06:47:48.319Z,9.62
2023-05-18T06:50:00.392Z,12.20
2023-05-18T06:52:12.514Z,10.26
2023-05-18T06:54:26.064Z,9.94
2023-05-18T06:56:39.141Z,8.01
2023-05-18T06:58:51.210Z,10.91
2023-05-18T07:01:03.335Z,10.59
2023-05-18T07:03:16.974Z,13.16
2023-05-18T07:05:30.190Z,11.23
2023-05-18T07:07:42.066Z,10.91
2023-05-18T07:09:54.114Z,10.26
2023-05-18T07:12:06.213Z,10.91
2023-05-18T07:14:18.288Z,11.55
2023-05-18T07:16:30.506Z,11.23
2023-05-18T07:18:42.464Z,9.30
2023-05-18T07:20:54.524Z,9.62
2023-05-18T07:23:06.600Z,11.55
2023-05-18T07:25:18.697Z,9.94
2023-05-18T07:27:30.768Z,11.55
2023-05-18T07:29:42.856Z,13.49
2023-05-18T07:31:55.070Z,10.26
2023-05-18T07:34:07.012Z,14.45
2023-05-18T07:36:19.137Z,4.46
2023-05-18T07:38:31.170Z,8.65
2023-05-18T07:40:43.240Z,9.62
2023-05-18T07:42:57.843Z,11.23
2023-05-18T07:45:11.430Z,9.62
2023-05-18T07:47:24.564Z,11.55
2023-05-18T07:49:36.826Z,11.87
2023-05-18T07:51:49.923Z,11.23
2023-05-18T07:54:02.992Z,14.45
2023-05-18T07:56:15.041Z,12.20
2023-05-18T07:58:27.154Z,12.52
2023-05-18T08:00:39.196Z,11.87
2023-05-18T08:02:51.517Z,12.20
2023-05-18T08:05:03.373Z,12.20
2023-05-18T08:07:15.438Z,10.26
2023-05-18T08:09:27.531Z,11.87
2023-05-18T08:11:39.595Z,12.20
2023-05-18T08:13:51.671Z,13.16
2023-05-18T08:18:15.998Z,12.20
2023-05-18T08:20:27.946Z,12.84
2023-05-18T08:22:40.975Z,12.20
2023-05-18T08:24:53.068Z,12.20
2023-05-18T08:27:05.145Z,15.42
2023-05-18T08:29:17.238Z,12.52
2023-05-18T08:31:29.494Z,11.23
2023-05-18T08:33:41.415Z,12.20
2023-05-18T08:35:53.495Z,12.52
2023-05-18T08:38:05.920Z,12.20
2023-05-18T08:40:17.641Z,11.87
2023-05-18T08:42:41.564Z,12.20
2023-05-18T08:44:43.306Z,12.84
2023-05-18T08:46:56.398Z,12.52
2023-05-18T08:49:11.070Z,12.84
2023-05-18T08:51:23.220Z,13.16
2023-05-18T08:53:35.141Z,10.91
2023-05-18T08:55:50.828Z,13.49
2023-05-18T08:58:04.296Z,13.16
2023-05-18T09:00:17.843Z,13.49
2023-05-18T09:02:33.461Z,13.81
2023-05-18T09:04:49.372Z,11.55
2023-05-18T09:08:18.822Z,13.16
2023-05-18T09:10:32.460Z,13.16
2023-05-18T09:12:45.959Z,12.84
2023-05-18T09:14:59.571Z,10.59
2023-05-18T09:17:12.648Z,12.84
2023-05-18T09:19:25.024Z,12.20
2023-05-18T09:21:38.491Z,12.84
2023-05-18T09:23:51.964Z,10.26
2023-05-18T09:26:05.506Z,14.13
2023-05-18T09:28:19.220Z,12.20
2023-05-18T09:30:32.793Z,13.49
2023-05-18T09:32:46.379Z,13.81
2023-05-18T09:34:58.334Z,14.13
2023-05-18T09:37:10.408Z,13.81
2023-05-18T09:39:22.503Z,14.78
2023-05-18T09:41:34.564Z,15.10
2023-05-18T09:43:46.681Z,12.84
2023-05-18T09:45:58.737Z,15.42
2023-05-18T09:48:10.842Z,16.39
2023-05-18T09:50:25.277Z,13.16
2023-05-18T09:52:38.972Z,13.81
2023-05-18T09:54:54.564Z,14.45
2023-05-18T09:57:10.891Z,14.45
2023-05-18T09:59:23.779Z,14.45
2023-05-18T10:01:37.879Z,14.78
2023-05-18T10:03:51.006Z,15.10
2023-05-18T10:06:03.020Z,15.42
2023-05-18T10:08:15.064Z,17.35
2023-05-18T10:10:28.725Z,14.45
2023-05-18T10:12:41.701Z,15.74
2023-05-18T10:14:55.309Z,15.42
2023-05-18T10:17:15.694Z,15.10
2023-05-18T10:19:23.011Z,17.03
2023-05-18T10:21:38.544Z,15.42
2023-05-18T10:23:52.108Z,14.45
2023-05-18T10:26:05.726Z,14.78
2023-05-18T10:28:19.292Z,15.74
2023-05-18T10:30:31.664Z,16.06
2023-05-18T10:32:44.461Z,13.49
2023-05-18T10:34:57.982Z,15.10
2023-05-18T10:37:12.291Z,13.81
2023-05-18T10:39:25.513Z,14.78
2023-05-18T10:41:39.019Z,14.78
2023-05-18T10:43:51.109Z,15.10
2023-05-18T10:46:03.303Z,15.42
2023-05-18T10:48:15.329Z,17.03
2023-05-18T10:50:27.358Z,15.42
2023-05-18T10:52:39.419Z,14.13
2023-05-18T10:54:52.509Z,17.35
2023-05-18T10:57:04.596Z,15.42
2023-05-18T10:59:16.700Z,16.71
2023-05-18T11:01:28.869Z,15.10
2023-05-18T11:03:40.862Z,15.42
2023-05-18T11:05:52.913Z,13.49
2023-05-18T11:08:05.015Z,14.78
2023-05-18T11:10:17.083Z,16.06
2023-05-18T11:12:29.224Z,14.45
2023-05-18T11:14:41.252Z,16.39
2023-05-18T11:16:53.379Z,14.45
2023-05-18T11:19:05.405Z,15.10
2023-05-18T11:21:17.550Z,14.45
2023-05-18T11:23:29.600Z,15.10
2023-05-18T11:25:41.650Z,15.10
2023-05-18T11:27:53.731Z,16.06
2023-05-18T11:30:30.354Z,15.74
2023-05-18T11:32:26.236Z,15.42
2023-05-18T11:34:29.999Z,17.68
2023-05-18T11:36:43.043Z,17.03
2023-05-18T11:38:55.127Z,15.74
2023-05-18T11:41:07.488Z,14.78
2023-05-18T11:43:20.562Z,15.10
2023-05-18T11:45:32.661Z,13.16
2023-05-18T11:47:44.805Z,16.06
2023-05-18T11:49:56.793Z,16.39
2023-05-18T11:52:08.872Z,13.81
2023-05-18T11:54:20.945Z,16.39
2023-05-18T11:56:33.067Z,15.42
2023-05-18T11:58:45.131Z,15.42
2023-05-18T12:00:57.209Z,15.42
2023-05-18T12:03:09.752Z,16.06
2023-05-18T12:05:22.702Z,17.03
2023-05-18T12:07:34.788Z,16.39
2023-05-18T12:09:48.360Z,16.39
2023-05-18T12:12:02.542Z,14.78
2023-05-18T12:14:14.191Z,10.26
2023-05-18T12:16:29.790Z,14.45
2023-05-18T12:18:45.967Z,17.03
2023-05-18T12:21:01.445Z,13.81
2023-05-18T12:23:20.089Z,15.42
2023-05-18T12:25:34.750Z,16.39
2023-05-18T12:27:50.245Z,15.74
2023-05-18T12:30:03.836Z,15.74
2023-05-18T12:32:16.884Z,14.13
2023-05-18T12:34:28.972Z,15.42
2023-05-18T12:36:44.560Z,14.78
2023-05-18T12:38:58.148Z,15.74
2023-05-18T12:41:11.758Z,15.74
2023-05-18T12:43:25.520Z,15.42
2023-05-18T12:45:40.979Z,15.74
2023-05-18T12:47:54.247Z,15.74
2023-05-18T12:50:07.632Z,16.71
2023-05-18T12:52:21.215Z,15.10
2023-05-18T12:54:34.795Z,15.42
2023-05-18T12:56:50.414Z,17.03
2023-05-18T12:59:04.021Z,14.45
2023-05-18T13:01:17.588Z,15.74
2023-05-18T13:03:31.261Z,13.81
2023-05-18T13:05:44.255Z,15.74
2023-05-18T13:07:57.307Z,15.74
2023-05-18T13:10:09.400Z,14.13
2023-05-18T13:12:21.448Z,15.10
2023-05-18T13:14:33.558Z,17.68
2023-05-18T13:16:46.626Z,13.49
2023-05-18T13:18:58.701Z,13.81
2023-05-18T13:21:10.770Z,16.71
2023-05-18T13:23:22.842Z,15.42
2023-05-18T13:25:34.957Z,14.45
2023-05-18T13:27:47.004Z,14.78
2023-05-18T13:29:59.087Z,15.74
2023-05-18T13:32:11.204Z,16.39
2023-05-18T13:34:23.523Z,15.74
2023-05-18T13:36:35.659Z,16.06
2023-05-18T13:38:47.692Z,13.81
2023-05-18T13:40:59.757Z,15.74
2023-05-18T13:43:13.790Z,15.74
2023-05-18T13:45:23.907Z,15.10
2023-05-18T13:47:36.052Z,16.71
2023-05-18T13:49:49.080Z,13.81
2023-05-18T13:52:01.464Z,15.42
2023-05-18T13:54:13.538Z,15.10
2023-05-18T13:56:25.625Z,14.45
2023-05-18T13:58:37.734Z,14.78
2023-05-18T14:00:49.831Z,15.10
2023-05-18T14:03:01.944Z,14.78
2023-05-18T14:05:13.911Z,16.39
2023-05-18T14:07:26.010Z,17.68
2023-05-18T14:09:38.119Z,14.45
2023-05-18T14:11:52.253Z,15.74
2023-05-18T14:14:02.236Z,15.42
2023-05-18T14:16:14.327Z,15.10
2023-05-18T14:18:27.374Z,15.10
2023-05-18T14:20:39.470Z,14.78
2023-05-18T14:22:51.514Z,15.10
2023-05-18T14:25:04.626Z,14.13
2023-05-18T14:27:16.680Z,14.78
2023-05-18T14:29:28.788Z,15.10
2023-05-18T14:31:41.925Z,15.10
2023-05-18T14:33:53.946Z,14.78
2023-05-18T14:36:06.029Z,14.78
2023-05-18T14:38:18.091Z,14.78
2023-05-18T14:40:30.371Z,15.42
2023-05-18T14:42:42.275Z,14.78
2023-05-18T14:44:54.347Z,15.10
2023-05-18T14:47:06.545Z,13.49
2023-05-18T14:49:18.551Z,13.49
2023-05-18T14:51:30.623Z,15.42
2023-05-18T14:53:42.732Z,15.10
2023-05-18T14:55:54.775Z,15.42
2023-05-18T14:58:06.858Z,16.39
2023-05-18T15:00:18.944Z,15.10
2023-05-18T15:02:32.138Z,16.06
2023-05-18T15:04:44.115Z,17.03
2023-05-18T15:06:57.170Z,14.45
2023-05-18T15:09:09.233Z,15.74
2023-05-18T15:11:21.311Z,15.10
2023-05-18T15:13:33.378Z,17.35
2023-05-18T15:15:45.505Z,17.35
2023-05-18T15:17:57.608Z,15.42
2023-05-18T15:20:09.622Z,15.74
2023-05-18T15:22:21.733Z,16.39
2023-05-18T15:24:33.844Z,15.10
2023-05-18T15:26:45.967Z,15.10
2023-05-18T15:28:57.978Z,16.71
2023-05-18T15:31:11.044Z,15.42
2023-05-18T15:33:23.124Z,13.81
2023-05-18T15:35:35.208Z,13.81
2023-05-18T15:37:47.303Z,16.39
2023-05-18T15:39:59.369Z,15.42
2023-05-18T15:42:11.464Z,16.71
2023-05-18T15:44:24.508Z,16.06
2023-05-18T15:46:36.587Z,15.42
2023-05-18T15:48:49.737Z,15.10
2023-05-18T15:51:01.761Z,16.71
2023-05-18T15:53:13.853Z,15.42
2023-05-18T15:55:25.921Z,16.06
2023-05-18T15:57:38.001Z,15.10
2023-05-18T15:59:50.103Z,15.42
2023-05-18T16:02:02.249Z,15.42
2023-05-18T16:04:15.329Z,17.03
2023-05-18T16:06:29.010Z,15.42
2023-05-18T16:08:41.101Z,15.42
2023-05-18T16:10:53.190Z,15.42
2023-05-18T16:13:05.258Z,15.74
2023-05-18T16:15:17.339Z,14.78
2023-05-18T16:17:29.512Z,15.74
2023-05-18T16:19:41.499Z,15.42
2023-05-18T16:21:53.578Z,15.74
2023-05-18T16:24:05.711Z,15.42
2023-05-18T16:26:17.730Z,16.39
2023-05-18T16:28:30.807Z,15.74
2023-05-18T16:30:42.891Z,15.74
2023-05-18T16:32:55.009Z,15.42
2023-05-18T16:35:07.066Z,15.42
2023-05-18T16:37:19.131Z,15.42
2023-05-18T16:39:32.211Z,16.06
2023-05-18T16:41:45.294Z,15.74
2023-05-18T16:43:57.412Z,14.13
2023-05-18T16:46:09.495Z,15.42
2023-05-18T16:48:21.573Z,15.74
2023-05-18T16:50:33.808Z,15.42
2023-05-18T16:52:45.734Z,15.10
2023-05-18T16:54:57.930Z,14.78
2023-05-18T16:57:09.889Z,15.74
2023-05-18T16:59:21.989Z,15.42
2023-05-18T17:01:34.064Z,15.42
2023-05-18T17:03:46.250Z,15.10
2023-05-18T17:05:58.216Z,15.10
2023-05-18T17:08:12.262Z,13.81
2023-05-18T17:10:25.345Z,15.10
2023-05-18T17:12:37.408Z,15.42
2023-05-18T17:14:52.067Z,14.45
2023-05-18T17:17:02.592Z,14.78
2023-05-18T17:19:15.647Z,14.78
2023-05-18T17:21:27.815Z,15.10
2023-05-18T17:23:39.807Z,14.45
2023-05-18T17:25:55.126Z,13.49
2023-05-18T17:28:04.291Z,14.78
2023-05-18T17:30:16.348Z,16.06
2023-05-18T17:32:29.950Z,13.16
2023-05-18T17:34:42.024Z,14.78
2023-05-18T17:36:55.108Z,15.10
2023-05-18T17:39:07.197Z,14.13
2023-05-18T17:41:19.231Z,14.45
2023-05-18T17:43:31.323Z,15.10
2023-05-18T17:45:44.383Z,15.42
2023-05-18T17:47:56.476Z,14.13
2023-05-18T17:50:08.580Z,12.84
2023-05-18T17:52:20.633Z,14.78
2023-05-18T17:54:32.749Z,14.13
2023-05-18T17:56:44.812Z,14.78
2023-05-18T17:58:56.912Z,12.84
2023-05-18T18:01:09.094Z,13.16
2023-05-18T18:03:24.658Z,14.78
2023-05-18T18:05:40.158Z,14.13
2023-05-18T18:07:56.616Z,13.81
2023-05-18T18:10:08.802Z,13.49
2023-05-18T18:12:24.511Z,13.49
2023-05-18T18:14:39.944Z,12.20
2023-05-18T18:16:57.764Z,13.49
2023-05-18T18:19:11.191Z,14.78
2023-05-18T18:21:26.720Z,16.06
2023-05-18T18:23:39.783Z,13.81
2023-05-18T18:25:55.361Z,15.42
2023-05-18T18:28:08.937Z,12.20
2023-05-18T18:30:22.515Z,13.81
2023-05-18T18:32:38.153Z,12.20
2023-05-18T18:34:51.728Z,12.20
2023-05-18T18:37:07.439Z,14.13
2023-05-18T18:39:20.858Z,13.16
2023-05-18T18:41:36.872Z,12.20
2023-05-18T18:43:52.026Z,10.59
2023-05-18T18:46:05.680Z,12.20
2023-05-18T18:48:20.243Z,11.23
2023-05-18T18:50:34.819Z,14.45
2023-05-18T18:52:52.922Z,13.81
2023-05-18T18:55:08.449Z,13.49
2023-05-18T18:57:21.610Z,12.52
2023-05-18T18:59:37.107Z,12.52
2023-05-18T19:01:53.026Z,12.52
2023-05-18T19:04:06.068Z,12.20
2023-05-18T19:06:21.660Z,11.23
2023-05-18T19:08:35.236Z,11.23
2023-05-18T19:10:49.838Z,12.20
2023-05-18T19:13:05.402Z,11.55
2023-05-18T19:15:20.973Z,11.23
2023-05-18T19:17:36.849Z,11.55
2023-05-18T19:19:52.166Z,10.91
2023-05-18T19:22:07.736Z,10.59
2023-05-18T19:24:21.308Z,11.23
2023-05-18T19:26:36.886Z,10.91
2023-05-18T19:28:52.487Z,10.91
2023-05-18T19:31:09.036Z,11.23
2023-05-18T19:33:21.130Z,10.59
2023-05-18T19:35:36.722Z,8.97
2023-05-18T19:37:50.309Z,10.91
2023-05-18T19:40:05.878Z,10.26
2023-05-18T19:42:18.987Z,11.23
2023-05-18T19:44:37.038Z,10.59
2023-05-18T19:46:52.593Z,10.59
2023-05-18T19:49:08.238Z,11.55
2023-05-18T19:51:23.847Z,11.87
2023-05-18T19:53:39.468Z,10.26
2023-05-18T19:55:53.040Z,11.23
2023-05-18T19:58:06.609Z,9.94
2023-05-18T20:00:24.692Z,10.26
2023-05-18T20:02:40.308Z,9.62
2023-05-18T20:04:52.368Z,9.94
2023-05-18T20:07:06.953Z,10.59
2023-05-18T20:09:23.171Z,9.94
2023-05-18T20:11:38.101Z,9.62
2023-05-18T20:13:53.669Z,11.23
2023-05-18T20:16:09.313Z,9.62
2023-05-18T20:18:22.321Z,9.62
2023-05-18T20:20:34.582Z,9.94
2023-05-18T20:22:48.510Z,9.62
2023-05-18T20:25:01.560Z,13.49
2023-05-18T20:27:17.327Z,8.65
2023-05-18T20:29:32.740Z,10.26
2023-05-18T20:31:50.989Z,10.26
2023-05-18T20:34:04.439Z,10.59
2023-05-18T20:36:20.006Z,9.62
2023-05-18T20:38:38.105Z,9.30
2023-05-18T20:40:53.685Z,10.59
2023-05-18T20:43:11.797Z,9.94
2023-05-18T20:45:25.356Z,12.20
2023-05-18T20:47:38.961Z,9.62
2023-05-18T20:49:52.589Z,10.91
2023-05-18T20:50:52.488Z,10.26
2023-05-18T20:53:06.115Z,11.55
2023-05-18T20:55:19.696Z,9.94
2023-05-18T20:57:33.294Z,12.52
2023-05-18T20:59:46.923Z,9.30
2023-05-18T21:02:00.645Z,9.94
2023-05-18T21:04:13.348Z,11.87
2023-05-18T21:06:26.191Z,11.23
2023-05-18T21:08:38.272Z,10.26
2023-05-18T21:10:51.871Z,9.94
2023-05-18T21:13:03.939Z,10.26
2023-05-18T21:15:19.572Z,10.26
2023-05-18T21:17:35.280Z,11.55
2023-05-18T21:19:47.277Z,9.94
2023-05-18T21:22:00.854Z,10.59
2023-05-18T21:24:14.446Z,10.26
2023-05-18T21:26:27.528Z,10.26
2023-05-18T21:28:39.638Z,9.30
2023-05-18T21:30:53.196Z,10.91
2023-05-18T21:33:06.915Z,10.26
2023-05-18T21:35:19.856Z,9.94
2023-05-18T21:37:33.452Z,11.23
2023-05-18T21:39:49.040Z,9.62
2023-05-18T21:42:04.642Z,9.94
2023-05-18T21:44:18.209Z,11.23
2023-05-18T21:46:30.355Z,9.94
2023-05-18T21:48:45.920Z,11.87
2023-05-18T21:51:01.504Z,9.30
2023-05-18T21:53:15.069Z,11.55
2023-05-18T21:55:27.142Z,9.62
2023-05-18T21:57:42.724Z,8.97
2023-05-18T21:59:55.801Z,10.91
2023-05-18T22:02:07.927Z,9.30
2023-05-18T22:04:21.509Z,11.23
2023-05-18T22:06:37.053Z,10.26
2023-05-18T22:08:49.132Z,7.36
2023-05-18T22:11:02.735Z,9.30
2023-05-18T22:13:16.384Z,10.59
2023-05-18T22:15:28.427Z,7.36
2023-05-18T22:17:42.076Z,10.59
2023-05-18T22:19:54.083Z,9.30
2023-05-18T22:22:11.589Z,11.23
2023-05-18T22:24:23.288Z,10.26
2023-05-18T22:26:36.873Z,9.94
2023-05-18T22:28:49.998Z,9.94
2023-05-18T22:31:05.599Z,9.30
2023-05-18T22:33:17.671Z,9.30
2023-05-18T22:35:31.237Z,9.30
2023-05-18T22:37:44.837Z,11.87
2023-05-18T22:39:56.966Z,7.69
2023-05-18T22:42:09.048Z,8.97
2023-05-18T22:44:22.581Z,8.65
2023-05-18T22:46:34.727Z,10.59
2023-05-18T22:48:48.264Z,9.62
2023-05-18T22:51:01.862Z,8.65
2023-05-18T22:53:13.947Z,8.33
2023-05-18T22:55:29.550Z,9.30
2023-05-18T22:57:41.636Z,9.30
2023-05-18T22:59:56.165Z,8.33
2023-05-18T23:02:11.802Z,9.94
2023-05-18T23:04:27.349Z,8.97
2023-05-18T23:06:43.233Z,8.65
2023-05-18T23:08:57.823Z,8.97
2023-05-18T23:11:11.390Z,10.26
2023-05-18T23:13:26.980Z,8.65
2023-05-18T23:15:45.094Z,8.65
2023-05-18T23:17:58.685Z,8.33
2023-05-18T23:20:10.752Z,7.04
2023-05-18T23:22:26.326Z,8.65
2023-05-18T23:24:41.959Z,8.33
2023-05-18T23:26:55.506Z,8.97
2023-05-18T23:29:09.111Z,7.04
2023-05-18T23:31:22.723Z,8.01
2023-05-18T23:33:36.410Z,7.69
2023-05-18T23:35:49.902Z,8.01
2023-05-18T23:38:03.509Z,6.07
2023-05-18T23:40:17.440Z,8.33
2023-05-18T23:42:30.995Z,6.72
2023-05-18T23:44:44.585Z,7.04
2023-05-18T23:46:56.705Z,8.33
2023-05-18T23:49:10.287Z,8.33
2023-05-18T23:51:23.885Z,8.01
2023-05-18T23:53:35.988Z,8.97
2023-05-18T23:55:48.087Z,8.01
2023-05-18T23:58:03.630Z,8.65
